Time,TemperatureF,DewpointF,PressureIn,WindDirection,WindDirectionDegrees,WindSpeedMPH,WindSpeedGustMPH,Humidity,HourlyPrecipIn,Conditions,Clouds,dailyrainin,SoftwareType,DateUTC
2013-08-23 00:05:00,72.3,63.0,29.67,NNE,26,8.0,18.0,72,0.00,,,0.00,weatherlink.com 1.10,2013-08-23 07:05:00,
2013-08-23 00:20:00,72.1,63.0,29.68,NNW,327,4.0,13.0,73,0.00,,,0.00,weatherlink.com 1.10,2013-08-23 07:20:00,
2013-08-23 00:35:00,71.7,63.0,29.67,WNW,301,6.0,10.0,75,0.00,,,0.00,weatherlink.com 1.10,2013-08-23 07:35:00,
2013-08-23 00:50:00,71.5,62.0,29.66,NNW,340,4.0,12.0,71,0.00,,,0.00,weatherlink.com 1.10,2013-08-23 07:50:00,
2013-08-23 01:05:00,71.5,62.0,29.66,NNW,346,3.0,10.0,72,0.00,,,0.00,weatherlink.com 1.10,2013-08-23 08:05:00,
2013-08-23 01:20:00,70.2,62.0,29.67,WNW,292,0.0,5.0,75,0.00,,,0.00,weatherlink.com 1.10,2013-08-23 08:20:00,
2013-08-23 01:35:00,68.8,62.0,29.67,North,355,1.0,2.0,80,0.00,,,0.00,weatherlink.com 1.10,2013-08-23 08:35:00,
2013-08-23 01:50:00,67.7,62.0,29.67,North,351,0.0,2.0,83,0.00,,,0.00,weatherlink.com 1.10,2013-08-23 08:50:00,
2013-08-23 02:05:00,66.7,62.0,29.67,West,269,0.0,2.0,85,0.00,,,0.00,weatherlink.com 1.10,2013-08-23 09:05:00,
2013-08-23 02:20:00,66.0,62.0,29.66,NNW,333,1.0,2.0,88,0.00,,,0.00,weatherlink.com 1.10,2013-08-23 09:20:00,
2013-08-23 02:35:00,65.6,62.0,29.65,NNW,333,0.0,2.0,89,0.00,,,0.00,weatherlink.com 1.10,2013-08-23 09:35:00,
2013-08-23 02:51:00,65.1,62.0,29.65,NW,311,0.0,1.0,90,0.00,,,0.00,weatherlink.com 1.10,2013-08-23 09:51:00,
2013-08-23 03:06:00,64.7,62.0,29.64,NW,311,0.0,0.0,91,0.00,,,0.00,weatherlink.com 1.10,2013-08-23 10:06:00,
2013-08-23 03:21:00,64.4,62.0,29.64,NW,311,0.0,1.0,92,0.00,,,0.00,weatherlink.com 1.10,2013-08-23 10:21:00,
2013-08-23 03:36:00,64.0,62.0,29.64,NW,311,0.0,0.0,93,0.00,,,0.00,weatherlink.com 1.10,2013-08-23 10:36:00,
2013-08-23 03:51:00,63.9,62.0,29.64,NW,311,0.0,0.0,94,0.00,,,0.00,weatherlink.com 1.10,2013-08-23 10:51:00,
2013-08-23 04:06:00,63.6,62.0,29.64,NW,311,0.0,0.0,93,0.00,,,0.00,weatherlink.com 1.10,2013-08-23 11:06:00,
2013-08-23 04:21:00,63.2,62.0,29.64,NW,311,0.0,0.0,94,0.00,,,0.00,weatherlink.com 1.10,2013-08-23 11:21:00,
2013-08-23 04:36:00,63.1,62.0,29.64,NW,311,0.0,1.0,95,0.00,,,0.00,weatherlink.com 1.10,2013-08-23 11:36:00,
2013-08-23 04:51:00,63.0,62.0,29.64,NW,311,0.0,0.0,95,0.00,,,0.00,weatherlink.com 1.10,2013-08-23 11:51:00,
2013-08-23 05:06:00,62.8,61.0,29.64,NW,311,0.0,0.0,95,0.00,,,0.00,weatherlink.com 1.10,2013-08-23 12:06:00,
2013-08-23 05:21:00,63.1,62.0,29.65,NW,311,0.0,2.0,96,0.00,,,0.00,weatherlink.com 1.10,2013-08-23 12:21:00,
2013-08-23 05:36:00,63.2,62.0,29.66,NW,311,0.0,0.0,96,0.00,,,0.00,weatherlink.com 1.10,2013-08-23 12:36:00,
2013-08-23 05:51:00,63.1,62.0,29.66,NW,323,0.0,6.0,96,0.00,,,0.00,weatherlink.com 1.10,2013-08-23 12:51:00,
2013-08-23 06:06:00,66.3,61.0,29.66,NNE,17,9.0,12.0,84,0.00,,,0.00,weatherlink.com 1.10,2013-08-23 13:06:00,
2013-08-23 06:21:00,68.5,61.0,29.66,WNW,287,9.0,10.0,78,0.00,,,0.00,weatherlink.com 1.10,2013-08-23 13:21:00,
2013-08-23 06:36:00,70.0,62.0,29.67,NW,313,4.0,11.0,75,0.00,,,0.00,weatherlink.com 1.10,2013-08-23 13:36:00,
2013-08-23 06:51:00,70.4,61.0,29.67,NNW,346,2.0,8.0,73,0.00,,,0.00,weatherlink.com 1.10,2013-08-23 13:51:00,
2013-08-23 07:06:00,72.4,62.0,29.67,North,360,4.0,8.0,69,0.00,,,0.00,weatherlink.com 1.10,2013-08-23 14:06:00,
2013-08-23 07:21:00,73.8,60.0,29.67,NNW,328,2.0,13.0,63,0.00,,,0.00,weatherlink.com 1.10,2013-08-23 14:21:00,
2013-08-23 07:36:00,74.5,61.0,29.68,NW,319,3.0,10.0,62,0.00,,,0.00,weatherlink.com 1.10,2013-08-23 14:36:00,
2013-08-23 07:51:00,75.3,64.0,29.68,West,265,1.0,3.0,68,0.00,,,0.00,weatherlink.com 1.10,2013-08-23 14:51:00,
2013-08-23 08:06:00,76.9,66.0,29.68,SW,224,0.0,2.0,70,0.00,,,0.00,weatherlink.com 1.10,2013-08-23 15:06:00,
2013-08-23 08:21:00,77.2,65.0,29.68,SSW,211,2.0,6.0,67,0.00,,,0.00,weatherlink.com 1.10,2013-08-23 15:21:00,
2013-08-23 08:36:00,77.9,66.0,29.68,SSW,199,1.0,4.0,66,0.00,,,0.00,weatherlink.com 1.10,2013-08-23 15:36:00,
2013-08-23 08:51:00,77.9,65.0,29.68,SSE,162,1.0,3.0,65,0.00,,,0.00,weatherlink.com 1.10,2013-08-23 15:51:00,
2013-08-23 09:06:00,77.3,65.0,29.68,SE,134,0.0,3.0,66,0.00,,,0.00,weatherlink.com 1.10,2013-08-23 16:06:00,
2013-08-23 09:21:00,77.4,65.0,29.67,ESE,119,2.0,4.0,66,0.00,,,0.00,weatherlink.com 1.10,2013-08-23 16:21:00,
2013-08-23 09:36:00,78.5,66.0,29.67,ESE,115,1.0,5.0,65,0.00,,,0.00,weatherlink.com 1.10,2013-08-23 16:36:00,
2013-08-23 09:51:00,79.0,67.0,29.67,South,171,1.0,3.0,66,0.00,,,0.00,weatherlink.com 1.10,2013-08-23 16:51:00,
2013-08-23 10:06:00,80.9,64.0,29.66,SSE,157,1.0,3.0,57,0.00,,,0.00,weatherlink.com 1.10,2013-08-23 17:06:00,
2013-08-23 10:21:00,80.9,63.0,29.66,ESE,111,0.0,1.0,55,0.00,,,0.00,weatherlink.com 1.10,2013-08-23 17:21:00,
2013-08-23 10:36:00,82.6,66.0,29.65,SSE,167,0.0,3.0,57,0.00,,,0.00,weatherlink.com 1.10,2013-08-23 17:36:00,
2013-08-23 10:51:00,84.6,65.0,29.64,South,179,0.0,3.0,52,0.00,,,0.00,weatherlink.com 1.10,2013-08-23 17:51:00,
2013-08-23 11:06:00,85.1,67.0,29.64,South,179,2.0,4.0,55,0.00,,,0.00,weatherlink.com 1.10,2013-08-23 18:06:00,
2013-08-23 11:21:00,86.0,65.0,29.64,SW,221,2.0,6.0,50,0.00,,,0.00,weatherlink.com 1.10,2013-08-23 18:21:00,
2013-08-23 11:37:00,87.1,66.0,29.63,SW,224,2.0,5.0,49,0.00,,,0.00,weatherlink.com 1.10,2013-08-23 18:37:00,
2013-08-23 11:52:00,87.1,66.0,29.62,ESE,120,1.0,3.0,49,0.00,,,0.00,weatherlink.com 1.10,2013-08-23 18:52:00,
2013-08-23 12:07:00,87.8,63.0,29.62,SE,126,0.0,2.0,44,0.00,,,0.00,weatherlink.com 1.10,2013-08-23 19:07:00,
2013-08-23 12:22:00,86.3,61.0,29.61,SE,125,1.0,2.0,43,0.00,,,0.00,weatherlink.com 1.10,2013-08-23 19:22:00,
2013-08-23 12:37:00,87.7,63.0,29.60,ESE,116,1.0,4.0,44,0.00,,,0.00,weatherlink.com 1.10,2013-08-23 19:37:00,
2013-08-23 12:52:00,90.5,63.0,29.60,SW,234,1.0,4.0,40,0.00,,,0.00,weatherlink.com 1.10,2013-08-23 19:52:00,
2013-08-23 13:07:00,91.0,60.0,29.59,WNW,284,1.0,4.0,35,0.00,,,0.00,weatherlink.com 1.10,2013-08-23 20:07:00,
2013-08-23 13:22:00,91.0,60.0,29.58,North,350,0.0,3.0,35,0.00,,,0.00,weatherlink.com 1.10,2013-08-23 20:22:00,
2013-08-23 13:37:00,89.7,62.0,29.57,NW,310,1.0,4.0,40,0.00,,,0.00,weatherlink.com 1.10,2013-08-23 20:37:00,
2013-08-23 13:52:00,89.9,64.0,29.56,WNW,302,1.0,8.0,42,0.00,,,0.00,weatherlink.com 1.10,2013-08-23 20:52:00,
2013-08-23 14:07:00,90.9,61.0,29.55,WNW,295,3.0,8.0,37,0.00,,,0.00,weatherlink.com 1.10,2013-08-23 21:07:00,
2013-08-23 14:22:00,92.3,59.0,29.55,NW,314,3.0,6.0,33,0.00,,,0.00,weatherlink.com 1.10,2013-08-23 21:22:00,
2013-08-23 14:37:00,92.5,59.0,29.55,North,5,1.0,5.0,33,0.00,,,0.00,weatherlink.com 1.10,2013-08-23 21:37:00,
2013-08-23 14:52:00,90.2,61.0,29.54,NW,314,5.0,9.0,38,0.00,,,0.00,weatherlink.com 1.10,2013-08-23 21:52:00,
2013-08-23 15:07:00,90.4,58.0,29.54,North,350,7.0,10.0,34,0.00,,,0.00,weatherlink.com 1.10,2013-08-23 22:07:00,
2013-08-23 15:22:00,90.1,57.0,29.54,NW,320,2.0,9.0,33,0.00,,,0.00,weatherlink.com 1.10,2013-08-23 22:22:00,
2013-08-23 15:37:00,91.1,61.0,29.54,East,94,5.0,7.0,36,0.00,,,0.00,weatherlink.com 1.10,2013-08-23 22:37:00,
2013-08-23 15:52:00,90.8,57.0,29.53,NE,54,0.0,4.0,32,0.00,,,0.00,weatherlink.com 1.10,2013-08-23 22:52:00,
2013-08-23 16:07:00,91.4,62.0,29.53,East,98,0.0,2.0,37,0.00,,,0.00,weatherlink.com 1.10,2013-08-23 23:07:00,
2013-08-23 16:22:00,91.1,64.0,29.52,SE,130,1.0,4.0,41,0.00,,,0.00,weatherlink.com 1.10,2013-08-23 23:22:00,
2013-08-23 16:37:00,91.1,61.0,29.52,SE,130,0.0,2.0,37,0.00,,,0.00,weatherlink.com 1.10,2013-08-23 23:37:00,
2013-08-23 16:52:00,90.2,61.0,29.52,SE,130,0.0,1.0,37,0.00,,,0.00,weatherlink.com 1.10,2013-08-23 23:52:00,
2013-08-23 17:07:00,90.2,61.0,29.51,ESE,109,3.0,7.0,37,0.00,,,0.00,weatherlink.com 1.10,2013-08-24 00:07:00,
2013-08-23 17:22:00,91.3,62.0,29.51,ESE,115,2.0,2.0,37,0.00,,,0.00,weatherlink.com 1.10,2013-08-24 00:22:00,
2013-08-23 17:37:00,91.5,61.0,29.50,South,181,3.0,6.0,36,0.00,,,0.00,weatherlink.com 1.10,2013-08-24 00:37:00,
2013-08-23 17:52:00,90.3,61.0,29.50,South,184,2.0,4.0,37,0.00,,,0.00,weatherlink.com 1.10,2013-08-24 00:52:00,
2013-08-23 18:07:00,89.3,60.0,29.50,SSW,197,1.0,3.0,38,0.00,,,0.00,weatherlink.com 1.10,2013-08-24 01:07:00,
2013-08-23 18:22:00,86.7,60.0,29.50,South,189,0.0,2.0,41,0.00,,,0.00,weatherlink.com 1.10,2013-08-24 01:22:00,
2013-08-23 18:37:00,84.6,63.0,29.51,SSE,164,0.0,0.0,48,0.00,,,0.00,weatherlink.com 1.10,2013-08-24 01:37:00,
2013-08-23 18:52:00,82.5,64.0,29.51,SSE,164,0.0,0.0,54,0.00,,,0.00,weatherlink.com 1.10,2013-08-24 01:52:00,
2013-08-23 19:07:00,80.5,64.0,29.52,SSE,164,0.0,0.0,58,0.00,,,0.00,weatherlink.com 1.10,2013-08-24 02:07:00,
2013-08-23 19:22:00,78.9,65.0,29.53,SSE,164,0.0,0.0,63,0.00,,,0.00,weatherlink.com 1.10,2013-08-24 02:22:00,
2013-08-23 19:37:00,77.7,65.0,29.54,SSE,164,0.0,0.0,66,0.00,,,0.00,weatherlink.com 1.10,2013-08-24 02:37:00,
2013-08-23 19:52:00,77.0,64.0,29.54,SSE,164,0.0,0.0,65,0.00,,,0.00,weatherlink.com 1.10,2013-08-24 02:52:00,
2013-08-23 20:07:00,76.4,65.0,29.54,SSE,164,0.0,0.0,68,0.00,,,0.00,weatherlink.com 1.10,2013-08-24 03:07:00,
2013-08-23 20:22:00,76.0,65.0,29.55,SSE,164,0.0,1.0,69,0.00,,,0.00,weatherlink.com 1.10,2013-08-24 03:22:00,
2013-08-23 20:37:00,75.7,66.0,29.55,SSE,164,0.0,0.0,71,0.00,,,0.00,weatherlink.com 1.10,2013-08-24 03:37:00,
2013-08-23 20:52:00,75.2,66.0,29.56,SSE,164,0.0,0.0,72,0.00,,,0.00,weatherlink.com 1.10,2013-08-24 03:52:00,
2013-08-23 21:07:00,75.1,65.0,29.57,SSE,157,0.0,2.0,71,0.00,,,0.00,weatherlink.com 1.10,2013-08-24 04:07:00,
2013-08-23 21:22:00,75.2,64.0,29.57,SSE,157,0.0,2.0,68,0.00,,,0.00,weatherlink.com 1.10,2013-08-24 04:22:00,
2013-08-23 21:37:00,75.6,60.0,29.57,WSW,252,3.0,5.0,59,0.00,,,0.00,weatherlink.com 1.10,2013-08-24 04:37:00,
2013-08-23 21:52:00,76.0,61.0,29.58,WSW,257,0.0,1.0,61,0.00,,,0.00,weatherlink.com 1.10,2013-08-24 04:52:00,
2013-08-23 22:08:00,75.4,61.0,29.58,WSW,257,0.0,0.0,62,0.00,,,0.00,weatherlink.com 1.10,2013-08-24 05:08:00,
2013-08-23 22:23:00,74.5,61.0,29.58,WSW,257,0.0,1.0,64,0.00,,,0.00,weatherlink.com 1.10,2013-08-24 05:23:00,
2013-08-23 22:38:00,73.7,62.0,29.57,WSW,257,0.0,0.0,68,0.00,,,0.00,weatherlink.com 1.10,2013-08-24 05:38:00,
2013-08-23 22:53:00,73.0,63.0,29.58,WSW,257,0.0,2.0,70,0.00,,,0.00,weatherlink.com 1.10,2013-08-24 05:53:00,
2013-08-23 23:08:00,71.9,62.0,29.59,WSW,257,0.0,1.0,72,0.00,,,0.00,weatherlink.com 1.10,2013-08-24 06:08:00,
2013-08-23 23:23:00,71.0,63.0,29.58,WSW,257,0.0,2.0,75,0.00,,,0.00,weatherlink.com 1.10,2013-08-24 06:23:00,
2013-08-23 23:38:00,70.0,63.0,29.59,WSW,257,0.0,1.0,79,0.00,,,0.00,weatherlink.com 1.10,2013-08-24 06:38:00,
2013-08-23 23:53:00,69.2,63.0,29.59,WSW,257,0.0,1.0,81,0.00,,,0.00,weatherlink.com 1.10,2013-08-24 06:53:00,